Friday, July 01, 2016
00:49 UTC
  |  Log In   |  Register Free
Airport Search:

New Richmond Regional Airport
(KRNH)

New Richmond Regional Airport Diagram
No Airport Diagram Available

FAA data valid effective May 26 2016 - Jul 21 2016 (unless otherwise noted).

 
 
 
 
 
 
 
 
 
 
 
 
 
 
Current Aviation Weather for KRNH

Weather Summary


The most recent METAR observation for RNH was updated at: 12:55 UTC
METAR for KRNH is not available. Closest METAR is for KOEO
KRNH  (most recent observation was updatred at 30:22 UTC)
302237Z AUTO 05010KT 10SM SCT042 SCT050 SCT060 22/11 A2997 RMK AO2

KOEO  (11.6 nm SE)   (most recent observation was updated at 30:23 UTC)
302355Z AUTO 35013G18KT 10SM CLR 22/11 A3001 RMK AO2 60003 T02210109 10242 20189

TAF for KRNH is not available.
KRNH  (0.0 nm )   (most recent observation was updatred at 30:23 UTC)
302357Z 0100/0124 35009KT P6SM SCT050 SCT200 FM010300 36005KT P6SM SKC FM011800 VRB03KT P6SM SCT050


KMSP  (33.1 nm NE)   (most recent observation was updatred at 30:23 UTC)
302357Z 0100/0206 35012G20KT P6SM FEW060 FEW200 FM010130 36006KT P6SM SKC FM011800 VRB03KT P6SM SCT050
GlobalAir.com is loading additional information.
 Current Weather at RNH
72.0 F° (22.0 C°)

Northeast winds at 11.5 mph
Pressure:
29.97 in
Humidity:
50%
Wind:
Northeast at 11.5 mph
Dew Point:
51.8 F° (11.0 C°)
Visibility:
10.00 mi
RNH NOAA Radar




Find All Airport Services Find A Hotel Find A Rental Car Find A Golf Course Find A Restaurant $100 Hamburger



Airport Weather Forecast for KRNH

Translated METAR for KRNH (2237 UTC)
METAR:
KRNH 302237Z AUTO 05010KT 10SM SCT042 SCT050 SCT060 22/11 A2997 RMK AO2
Conditions at:
KRNH (New Richmond Rgnl, WI) observed 2237 UTC 30 June 2016
Temperature:
22°C (71.6°F)
Dewpoint:
11°C (51.8°F) [RH = 49.7]
Pressure:
29.97 inches Hg (1014.9 mb)
Winds:
from the NE (050 degrees) at 11.5 mph (10 knots: 5.1 m/s)
Visibility:
10 mile(s)
Ceiling:
at least 12,000 feet AGL
Clouds:
Scattered Clouds at 4,200 feet AGL
Scattered Clouds at 5,000 feet AGL
Scattered Clouds at 6,000 feet AGL
Remarks:
site is un-manned
site is automated and HAS a precipitation sensor

Translated TAF for KRNH (New Richmond Rgnl, WI) (2357 UTC)
TAF text:
KRNH 302357Z 0100/0124 35009KT P6SM SCT050 SCT200
Forecast period:
Wednesday Jun 01 2016 00:00 UTC - Wednesday Jun 01 2016 24:00 UTC
Forecast type:
FROM: standard forecast or significant change
Winds:
from the N (350 degrees) at 10.4 mph (9 knots: 4.6 m/s)
Visibility:
6 or more mile(s) (9.7+ km)
Ceiling:
at least 12,000 feet AGL
Clouds:
Scattered Clouds at 5,000 feet AGL
Scattered Clouds at 20,000 feet AGL
Weather:
no significant weather observed at this time
TAF text:
FM010300 36005KT P6SM SKC
Forecast period:
Wednesday Jun 01 2016 03:00 UTC - Wednesday Jun 01 2016 18:00 UTC
Forecast type:
FROM: standard forecast or significant change
Winds:
from the N (360 degrees) at 5.8 mph (5 knots: 2.6 m/s)
Visibility:
6 or more mile(s) (9.7+ km)
Ceiling:
at least 12,000 feet AGL
Clouds:
Clear Skies
Weather:
no significant weather observed at this time
TAF text:
FM011800 VRB03KT P6SM SCT050
Forecast period:
Wednesday Jun 01 2016 18:00 UTC - Wednesday Jun 01 2016 24:00 UTC
Forecast type:
FROM: standard forecast or significant change
Winds:
variable wind direction at 3.5 mph (3 knots: 1.5 m/s)
Visibility:
6 or more mile(s) (9.7+ km)
Ceiling:
at least 12,000 feet AGL
Clouds:
Scattered Clouds at 5,000 feet AGL
Weather:
no significant weather observed at this time
FBO's on the Field
FBO Company Facility Photos Services Transportation Aviation Fuel Prices: Prices include tax
Catering Weather Repair Courtesy Rental Type 100LL JetA JetA+ MOGAS 8087
 
Griggs Aviation

This FBO has not yet been rated
FS:Independent
Last Updated: Jun-27
Login to update fuel prices
SS:
Contact Griggs AviationMore FBO Information
 
Add another FBO Facility Photos Catering Weather Repair Courtesy Rental Type 100LL JetA JetA+ MOGAS 8087
Services Transportation Aviation Fuel Prices: Prices include tax


model-print
model-print
model-print
model-print